sensor_id;sensor_type;location;lat;lon;timestamp;P1;durP1;ratioP1;P2;durP2;ratioP2
78589;SDS011;67888;50.228;7.828;2024-01-15T00:01:07;13.97;;;5.43;;
78589;SDS011;67888;50.228;7.828;2024-01-15T00:06:07;17.13;;;5.77;;
78589;SDS011;67888;50.228;7.828;2024-01-15T00:11:08;19.80;;;6.17;;
78589;SDS011;67888;50.228;7.828;2024-01-15T00:16:08;18.50;;;6.13;;
78589;SDS011;67888;50.228;7.828;2024-01-15T00:21:09;17.55;;;5.53;;
78589;SDS011;67888;50.228;7.828;2024-01-15T00:26:09;18.13;;;5.93;;
78589;SDS011;67888;50.228;7.828;2024-01-15T00:31:10;24.13;;;6.10;;
78589;SDS011;67888;50.228;7.828;2024-01-15T00:36:11;15.50;;;5.07;;
78589;SDS011;67888;50.228;7.828;2024-01-15T00:41:11;17.63;;;5.67;;
78589;SDS011;67888;50.228;7.828;2024-01-15T00:46:12;18.50;;;5.70;;
78589;SDS011;67888;50.228;7.828;2024-01-15T00:51:12;18.83;;;5.20;;
78589;SDS011;67888;50.228;7.828;2024-01-15T00:56:13;17.27;;;6.07;;
78589;SDS011;67888;50.228;7.828;2024-01-15T01:01:13;20.33;;;5.57;;
78589;SDS011;67888;50.228;7.828;2024-01-15T01:06:13;20.17;;;4.87;;
78589;SDS011;67888;50.228;7.828;2024-01-15T01:11:14;15.37;;;5.27;;
78589;SDS011;67888;50.228;7.828;2024-01-15T01:16:15;14.77;;;4.72;;
78589;SDS011;67888;50.228;7.828;2024-01-15T01:21:16;19.63;;;6.10;;
78589;SDS011;67888;50.228;7.828;2024-01-15T01:26:17;15.93;;;6.30;;
78589;SDS011;67888;50.228;7.828;2024-01-15T01:31:18;16.70;;;5.72;;
78589;SDS011;67888;50.228;7.828;2024-01-15T01:36:18;14.13;;;5.03;;
78589;SDS011;67888;50.228;7.828;2024-01-15T01:41:18;15.87;;;4.97;;
78589;SDS011;67888;50.228;7.828;2024-01-15T01:46:19;17.73;;;6.07;;
78589;SDS011;67888;50.228;7.828;2024-01-15T01:51:19;11.00;;;4.60;;
78589;SDS011;67888;50.228;7.828;2024-01-15T01:56:21;16.23;;;5.47;;
78589;SDS011;67888;50.228;7.828;2024-01-15T02:01:22;18.17;;;6.13;;
78589;SDS011;67888;50.228;7.828;2024-01-15T02:06:23;20.50;;;5.20;;
78589;SDS011;67888;50.228;7.828;2024-01-15T02:11:24;18.10;;;5.03;;
78589;SDS011;67888;50.228;7.828;2024-01-15T02:16:24;18.92;;;4.90;;
78589;SDS011;67888;50.228;7.828;2024-01-15T02:21:25;20.80;;;5.63;;
78589;SDS011;67888;50.228;7.828;2024-01-15T02:26:28;17.07;;;5.50;;
78589;SDS011;67888;50.228;7.828;2024-01-15T02:31:29;20.07;;;6.67;;
78589;SDS011;67888;50.228;7.828;2024-01-15T02:36:29;15.03;;;4.97;;
78589;SDS011;67888;50.228;7.828;2024-01-15T02:41:29;14.07;;;4.40;;
78589;SDS011;67888;50.228;7.828;2024-01-15T02:46:30;19.43;;;6.73;;
78589;SDS011;67888;50.228;7.828;2024-01-15T02:51:30;17.93;;;5.10;;
78589;SDS011;67888;50.228;7.828;2024-01-15T02:56:31;18.83;;;5.37;;
78589;SDS011;67888;50.228;7.828;2024-01-15T03:01:31;16.97;;;5.40;;
78589;SDS011;67888;50.228;7.828;2024-01-15T03:06:32;17.77;;;5.53;;
78589;SDS011;67888;50.228;7.828;2024-01-15T03:11:38;18.80;;;5.90;;
78589;SDS011;67888;50.228;7.828;2024-01-15T03:16:39;15.00;;;5.47;;
78589;SDS011;67888;50.228;7.828;2024-01-15T03:21:40;19.17;;;5.93;;
78589;SDS011;67888;50.228;7.828;2024-01-15T03:26:40;19.23;;;5.63;;
78589;SDS011;67888;50.228;7.828;2024-01-15T03:31:40;20.40;;;5.93;;
78589;SDS011;67888;50.228;7.828;2024-01-15T03:36:41;18.70;;;5.97;;
78589;SDS011;67888;50.228;7.828;2024-01-15T03:41:41;16.67;;;4.80;;
78589;SDS011;67888;50.228;7.828;2024-01-15T03:46:42;21.20;;;5.60;;
78589;SDS011;67888;50.228;7.828;2024-01-15T03:51:42;17.43;;;4.67;;
78589;SDS011;67888;50.228;7.828;2024-01-15T03:56:43;18.80;;;5.50;;
78589;SDS011;67888;50.228;7.828;2024-01-15T04:01:49;21.83;;;6.83;;
78589;SDS011;67888;50.228;7.828;2024-01-15T04:06:53;21.17;;;6.88;;
78589;SDS011;67888;50.228;7.828;2024-01-15T04:11:53;19.97;;;6.37;;
78589;SDS011;67888;50.228;7.828;2024-01-15T04:16:54;22.10;;;6.20;;
78589;SDS011;67888;50.228;7.828;2024-01-15T04:21:54;21.07;;;6.17;;
78589;SDS011;67888;50.228;7.828;2024-01-15T04:26:55;19.27;;;5.63;;
78589;SDS011;67888;50.228;7.828;2024-01-15T04:31:55;20.27;;;6.10;;
78589;SDS011;67888;50.228;7.828;2024-01-15T04:36:56;18.40;;;5.70;;
78589;SDS011;67888;50.228;7.828;2024-01-15T04:41:56;20.00;;;5.57;;
78589;SDS011;67888;50.228;7.828;2024-01-15T04:46:57;18.57;;;5.40;;
78589;SDS011;67888;50.228;7.828;2024-01-15T04:51:57;21.90;;;5.77;;
78589;SDS011;67888;50.228;7.828;2024-01-15T04:56:58;19.50;;;5.80;;
78589;SDS011;67888;50.228;7.828;2024-01-15T05:01:58;16.70;;;5.47;;
78589;SDS011;67888;50.228;7.828;2024-01-15T05:06:58;18.17;;;5.63;;
78589;SDS011;67888;50.228;7.828;2024-01-15T05:11:59;19.83;;;5.43;;
78589;SDS011;67888;50.228;7.828;2024-01-15T05:16:59;23.27;;;7.00;;
78589;SDS011;67888;50.228;7.828;2024-01-15T05:22:00;18.70;;;5.73;;
78589;SDS011;67888;50.228;7.828;2024-01-15T05:27:00;20.10;;;5.63;;
78589;SDS011;67888;50.228;7.828;2024-01-15T05:32:00;21.00;;;6.20;;
78589;SDS011;67888;50.228;7.828;2024-01-15T05:37:01;20.13;;;6.20;;
78589;SDS011;67888;50.228;7.828;2024-01-15T05:42:01;21.40;;;5.80;;
78589;SDS011;67888;50.228;7.828;2024-01-15T05:47:02;26.35;;;6.63;;
78589;SDS011;67888;50.228;7.828;2024-01-15T05:52:04;20.03;;;5.97;;
78589;SDS011;67888;50.228;7.828;2024-01-15T05:57:04;18.10;;;5.78;;
78589;SDS011;67888;50.228;7.828;2024-01-15T06:02:05;20.93;;;6.27;;
78589;SDS011;67888;50.228;7.828;2024-01-15T06:07:06;23.20;;;6.10;;
78589;SDS011;67888;50.228;7.828;2024-01-15T06:12:07;19.57;;;6.23;;
78589;SDS011;67888;50.228;7.828;2024-01-15T06:17:07;21.85;;;6.35;;
78589;SDS011;67888;50.228;7.828;2024-01-15T06:22:08;17.20;;;5.90;;
78589;SDS011;67888;50.228;7.828;2024-01-15T06:27:08;20.50;;;6.20;;
78589;SDS011;67888;50.228;7.828;2024-01-15T06:32:09;19.95;;;5.90;;
78589;SDS011;67888;50.228;7.828;2024-01-15T06:37:09;18.30;;;4.97;;
78589;SDS011;67888;50.228;7.828;2024-01-15T06:42:10;17.07;;;5.57;;
78589;SDS011;67888;50.228;7.828;2024-01-15T06:47:10;18.87;;;6.53;;
78589;SDS011;67888;50.228;7.828;2024-01-15T06:52:11;18.80;;;5.30;;
78589;SDS011;67888;50.228;7.828;2024-01-15T06:57:12;17.05;;;6.05;;
78589;SDS011;67888;50.228;7.828;2024-01-15T07:02:12;19.47;;;5.73;;
78589;SDS011;67888;50.228;7.828;2024-01-15T07:07:13;20.60;;;6.53;;
78589;SDS011;67888;50.228;7.828;2024-01-15T07:12:13;17.47;;;5.60;;
78589;SDS011;67888;50.228;7.828;2024-01-15T07:17:14;22.90;;;6.83;;
78589;SDS011;67888;50.228;7.828;2024-01-15T07:22:14;19.17;;;5.93;;
78589;SDS011;67888;50.228;7.828;2024-01-15T07:27:17;20.75;;;6.57;;
78589;SDS011;67888;50.228;7.828;2024-01-15T07:32:17;19.03;;;6.40;;
78589;SDS011;67888;50.228;7.828;2024-01-15T07:37:18;17.17;;;5.80;;
78589;SDS011;67888;50.228;7.828;2024-01-15T07:42:18;20.03;;;6.13;;
78589;SDS011;67888;50.228;7.828;2024-01-15T07:47:19;19.27;;;6.97;;
78589;SDS011;67888;50.228;7.828;2024-01-15T07:52:19;21.60;;;6.88;;
78589;SDS011;67888;50.228;7.828;2024-01-15T07:57:20;19.07;;;6.20;;
78589;SDS011;67888;50.228;7.828;2024-01-15T08:02:21;19.53;;;6.30;;
78589;SDS011;67888;50.228;7.828;2024-01-15T08:07:22;18.70;;;6.63;;
78589;SDS011;67888;50.228;7.828;2024-01-15T08:12:22;21.43;;;7.17;;
78589;SDS011;67888;50.228;7.828;2024-01-15T08:17:23;20.73;;;6.57;;
78589;SDS011;67888;50.228;7.828;2024-01-15T08:22:28;20.90;;;6.15;;
78589;SDS011;67888;50.228;7.828;2024-01-15T08:27:28;20.07;;;6.47;;
78589;SDS011;67888;50.228;7.828;2024-01-15T08:32:29;17.85;;;5.43;;
78589;SDS011;67888;50.228;7.828;2024-01-15T08:37:30;22.37;;;7.17;;
78589;SDS011;67888;50.228;7.828;2024-01-15T08:42:30;17.70;;;6.40;;
78589;SDS011;67888;50.228;7.828;2024-01-15T08:47:31;16.40;;;6.32;;
78589;SDS011;67888;50.228;7.828;2024-01-15T08:52:32;17.17;;;5.37;;
78589;SDS011;67888;50.228;7.828;2024-01-15T08:57:33;18.00;;;6.37;;
78589;SDS011;67888;50.228;7.828;2024-01-15T09:02:34;17.85;;;6.32;;
78589;SDS011;67888;50.228;7.828;2024-01-15T09:07:35;17.40;;;5.65;;
78589;SDS011;67888;50.228;7.828;2024-01-15T09:12:36;17.93;;;5.67;;
78589;SDS011;67888;50.228;7.828;2024-01-15T09:17:36;15.37;;;5.33;;
78589;SDS011;67888;50.228;7.828;2024-01-15T09:22:40;15.93;;;5.70;;
78589;SDS011;67888;50.228;7.828;2024-01-15T09:27:43;17.15;;;5.57;;
78589;SDS011;67888;50.228;7.828;2024-01-15T09:32:43;15.07;;;5.30;;
78589;SDS011;67888;50.228;7.828;2024-01-15T09:37:44;16.37;;;5.03;;
78589;SDS011;67888;50.228;7.828;2024-01-15T09:42:45;16.55;;;5.68;;
78589;SDS011;67888;50.228;7.828;2024-01-15T09:47:47;14.67;;;5.67;;
78589;SDS011;67888;50.228;7.828;2024-01-15T09:52:48;15.68;;;5.53;;
78589;SDS011;67888;50.228;7.828;2024-01-15T09:57:49;13.77;;;5.47;;
78589;SDS011;67888;50.228;7.828;2024-01-15T10:02:50;14.20;;;5.05;;
78589;SDS011;67888;50.228;7.828;2024-01-15T10:07:50;13.73;;;5.00;;
78589;SDS011;67888;50.228;7.828;2024-01-15T10:12:53;14.63;;;5.00;;
78589;SDS011;67888;50.228;7.828;2024-01-15T10:17:55;12.55;;;4.82;;
78589;SDS011;67888;50.228;7.828;2024-01-15T10:22:55;13.37;;;5.60;;
78589;SDS011;67888;50.228;7.828;2024-01-15T10:27:59;17.13;;;5.23;;
78589;SDS011;67888;50.228;7.828;2024-01-15T10:33:02;14.95;;;5.60;;
78589;SDS011;67888;50.228;7.828;2024-01-15T10:38:05;13.25;;;5.40;;
78589;SDS011;67888;50.228;7.828;2024-01-15T10:43:05;15.47;;;5.57;;
78589;SDS011;67888;50.228;7.828;2024-01-15T10:48:06;15.37;;;5.60;;
78589;SDS011;67888;50.228;7.828;2024-01-15T10:53:08;14.35;;;4.93;;
78589;SDS011;67888;50.228;7.828;2024-01-15T10:58:09;13.18;;;5.57;;
78589;SDS011;67888;50.228;7.828;2024-01-15T11:03:10;14.57;;;5.90;;
78589;SDS011;67888;50.228;7.828;2024-01-15T11:08:11;15.90;;;5.67;;
78589;SDS011;67888;50.228;7.828;2024-01-15T11:18:40;13.43;;;4.73;;
78589;SDS011;67888;50.228;7.828;2024-01-15T11:23:55;13.90;;;5.47;;
78589;SDS011;67888;50.228;7.828;2024-01-15T11:28:58;9.97;;;4.07;;
78589;SDS011;67888;50.228;7.828;2024-01-15T11:34:00;9.45;;;3.85;;
78589;SDS011;67888;50.228;7.828;2024-01-15T11:39:24;13.23;;;5.10;;
78589;SDS011;67888;50.228;7.828;2024-01-15T11:44:28;16.48;;;5.55;;
78589;SDS011;67888;50.228;7.828;2024-01-15T11:55:51;14.03;;;4.43;;
78589;SDS011;67888;50.228;7.828;2024-01-15T12:00:40;13.88;;;4.53;;
78589;SDS011;67888;50.228;7.828;2024-01-15T12:05:42;16.92;;;5.68;;
78589;SDS011;67888;50.228;7.828;2024-01-15T12:10:43;13.23;;;4.90;;
78589;SDS011;67888;50.228;7.828;2024-01-15T12:15:44;12.77;;;4.53;;
78589;SDS011;67888;50.228;7.828;2024-01-15T12:20:46;13.70;;;5.45;;
78589;SDS011;67888;50.228;7.828;2024-01-15T12:25:47;11.50;;;4.47;;
78589;SDS011;67888;50.228;7.828;2024-01-15T12:30:47;13.47;;;5.13;;
78589;SDS011;67888;50.228;7.828;2024-01-15T12:35:53;13.52;;;4.57;;
78589;SDS011;67888;50.228;7.828;2024-01-15T12:40:54;13.95;;;5.57;;
78589;SDS011;67888;50.228;7.828;2024-01-15T12:45:54;13.60;;;4.73;;
78589;SDS011;67888;50.228;7.828;2024-01-15T12:50:55;13.23;;;5.00;;
78589;SDS011;67888;50.228;7.828;2024-01-15T12:55:55;13.23;;;5.27;;
78589;SDS011;67888;50.228;7.828;2024-01-15T13:00:57;13.30;;;4.47;;
78589;SDS011;67888;50.228;7.828;2024-01-15T13:05:58;12.87;;;4.90;;
78589;SDS011;67888;50.228;7.828;2024-01-15T13:10:58;12.30;;;4.77;;
78589;SDS011;67888;50.228;7.828;2024-01-15T13:15:59;12.85;;;4.75;;
78589;SDS011;67888;50.228;7.828;2024-01-15T13:21:00;14.13;;;4.63;;
78589;SDS011;67888;50.228;7.828;2024-01-15T13:26:02;13.05;;;4.63;;
78589;SDS011;67888;50.228;7.828;2024-01-15T13:31:03;12.23;;;4.20;;
78589;SDS011;67888;50.228;7.828;2024-01-15T13:36:04;11.32;;;4.53;;
78589;SDS011;67888;50.228;7.828;2024-01-15T13:41:08;12.17;;;4.13;;
78589;SDS011;67888;50.228;7.828;2024-01-15T13:46:08;11.60;;;4.40;;
78589;SDS011;67888;50.228;7.828;2024-01-15T13:51:10;11.25;;;3.90;;
78589;SDS011;67888;50.228;7.828;2024-01-15T13:56:11;10.07;;;3.40;;
78589;SDS011;67888;50.228;7.828;2024-01-15T14:01:12;9.90;;;3.67;;
78589;SDS011;67888;50.228;7.828;2024-01-15T14:06:13;13.30;;;3.90;;
78589;SDS011;67888;50.228;7.828;2024-01-15T14:11:13;9.05;;;3.65;;
78589;SDS011;67888;50.228;7.828;2024-01-15T14:16:14;11.10;;;3.43;;
78589;SDS011;67888;50.228;7.828;2024-01-15T14:21:15;10.30;;;3.97;;
78589;SDS011;67888;50.228;7.828;2024-01-15T14:26:15;9.90;;;3.80;;
78589;SDS011;67888;50.228;7.828;2024-01-15T14:31:16;11.55;;;3.60;;
78589;SDS011;67888;50.228;7.828;2024-01-15T14:36:17;9.33;;;3.40;;
78589;SDS011;67888;50.228;7.828;2024-01-15T14:41:17;8.00;;;2.83;;
78589;SDS011;67888;50.228;7.828;2024-01-15T14:46:18;6.93;;;2.47;;
78589;SDS011;67888;50.228;7.828;2024-01-15T14:51:18;7.00;;;1.90;;
78589;SDS011;67888;50.228;7.828;2024-01-15T14:56:19;8.73;;;2.27;;
78589;SDS011;67888;50.228;7.828;2024-01-15T15:01:20;8.15;;;1.70;;
78589;SDS011;67888;50.228;7.828;2024-01-15T15:06:23;7.50;;;2.27;;
78589;SDS011;67888;50.228;7.828;2024-01-15T15:11:28;8.65;;;1.75;;
78589;SDS011;67888;50.228;7.828;2024-01-15T15:16:29;5.55;;;1.88;;
78589;SDS011;67888;50.228;7.828;2024-01-15T15:21:30;5.57;;;1.63;;
78589;SDS011;67888;50.228;7.828;2024-01-15T15:26:31;4.10;;;1.53;;
78589;SDS011;67888;50.228;7.828;2024-01-15T15:31:31;5.03;;;1.70;;
78589;SDS011;67888;50.228;7.828;2024-01-15T15:36:31;3.90;;;1.42;;
78589;SDS011;67888;50.228;7.828;2024-01-15T15:41:32;4.00;;;1.40;;
78589;SDS011;67888;50.228;7.828;2024-01-15T15:46:33;4.57;;;1.63;;
78589;SDS011;67888;50.228;7.828;2024-01-15T15:51:33;7.07;;;1.97;;
78589;SDS011;67888;50.228;7.828;2024-01-15T15:56:35;5.20;;;1.90;;
78589;SDS011;67888;50.228;7.828;2024-01-15T16:01:38;6.30;;;1.70;;
78589;SDS011;67888;50.228;7.828;2024-01-15T16:06:39;9.57;;;1.70;;
78589;SDS011;67888;50.228;7.828;2024-01-15T16:11:39;4.73;;;1.43;;
78589;SDS011;67888;50.228;7.828;2024-01-15T16:16:40;4.53;;;1.57;;
78589;SDS011;67888;50.228;7.828;2024-01-15T16:21:42;5.63;;;1.55;;
78589;SDS011;67888;50.228;7.828;2024-01-15T16:26:42;6.67;;;1.57;;
78589;SDS011;67888;50.228;7.828;2024-01-15T16:31:43;6.63;;;2.00;;
78589;SDS011;67888;50.228;7.828;2024-01-15T16:36:43;4.75;;;1.58;;
78589;SDS011;67888;50.228;7.828;2024-01-15T16:41:44;7.13;;;1.80;;
78589;SDS011;67888;50.228;7.828;2024-01-15T16:46:45;5.03;;;1.40;;
78589;SDS011;67888;50.228;7.828;2024-01-15T16:51:45;6.60;;;1.90;;
78589;SDS011;67888;50.228;7.828;2024-01-15T16:56:46;3.77;;;1.50;;
78589;SDS011;67888;50.228;7.828;2024-01-15T17:01:47;5.50;;;1.60;;
78589;SDS011;67888;50.228;7.828;2024-01-15T17:06:47;3.92;;;1.58;;
78589;SDS011;67888;50.228;7.828;2024-01-15T17:11:48;6.23;;;1.80;;
78589;SDS011;67888;50.228;7.828;2024-01-15T17:16:48;4.10;;;1.60;;
78589;SDS011;67888;50.228;7.828;2024-01-15T17:21:49;4.63;;;1.53;;
78589;SDS011;67888;50.228;7.828;2024-01-15T17:26:49;4.07;;;1.40;;
78589;SDS011;67888;50.228;7.828;2024-01-15T17:31:50;5.22;;;1.83;;
78589;SDS011;67888;50.228;7.828;2024-01-15T17:36:51;6.10;;;2.13;;
78589;SDS011;67888;50.228;7.828;2024-01-15T17:41:52;4.32;;;1.70;;
78589;SDS011;67888;50.228;7.828;2024-01-15T17:46:52;6.93;;;2.30;;
78589;SDS011;67888;50.228;7.828;2024-01-15T17:51:53;5.20;;;1.90;;
78589;SDS011;67888;50.228;7.828;2024-01-15T17:56:54;7.30;;;2.00;;
78589;SDS011;67888;50.228;7.828;2024-01-15T18:01:55;6.38;;;2.10;;
78589;SDS011;67888;50.228;7.828;2024-01-15T18:06:55;7.20;;;1.95;;
78589;SDS011;67888;50.228;7.828;2024-01-15T18:11:57;7.13;;;1.87;;
78589;SDS011;67888;50.228;7.828;2024-01-15T18:17:01;4.75;;;1.77;;
78589;SDS011;67888;50.228;7.828;2024-01-15T18:22:02;4.47;;;1.70;;
78589;SDS011;67888;50.228;7.828;2024-01-15T18:27:03;4.45;;;1.52;;
78589;SDS011;67888;50.228;7.828;2024-01-15T18:32:05;4.57;;;1.42;;
78589;SDS011;67888;50.228;7.828;2024-01-15T18:37:06;3.90;;;1.33;;
78589;SDS011;67888;50.228;7.828;2024-01-15T18:42:07;3.92;;;1.25;;
78589;SDS011;67888;50.228;7.828;2024-01-15T18:47:07;4.77;;;1.70;;
78589;SDS011;67888;50.228;7.828;2024-01-15T18:52:08;3.53;;;1.40;;
78589;SDS011;67888;50.228;7.828;2024-01-15T18:57:10;4.43;;;1.30;;
78589;SDS011;67888;50.228;7.828;2024-01-15T19:02:11;6.43;;;1.40;;
78589;SDS011;67888;50.228;7.828;2024-01-15T19:07:11;4.63;;;1.43;;
78589;SDS011;67888;50.228;7.828;2024-01-15T19:12:12;2.97;;;1.17;;
78589;SDS011;67888;50.228;7.828;2024-01-15T19:17:13;5.72;;;1.30;;
78589;SDS011;67888;50.228;7.828;2024-01-15T19:22:13;4.60;;;1.10;;
78589;SDS011;67888;50.228;7.828;2024-01-15T19:27:14;4.47;;;1.13;;
78589;SDS011;67888;50.228;7.828;2024-01-15T19:32:14;4.07;;;1.20;;
78589;SDS011;67888;50.228;7.828;2024-01-15T19:37:14;5.70;;;1.27;;
78589;SDS011;67888;50.228;7.828;2024-01-15T19:42:15;7.13;;;1.60;;
78589;SDS011;67888;50.228;7.828;2024-01-15T19:47:15;4.97;;;1.57;;
78589;SDS011;67888;50.228;7.828;2024-01-15T19:52:16;5.68;;;1.30;;
78589;SDS011;67888;50.228;7.828;2024-01-15T19:57:17;8.53;;;1.37;;
78589;SDS011;67888;50.228;7.828;2024-01-15T20:02:18;4.47;;;1.70;;
78589;SDS011;67888;50.228;7.828;2024-01-15T20:07:19;4.57;;;1.35;;
78589;SDS011;67888;50.228;7.828;2024-01-15T20:12:20;5.57;;;1.70;;
78589;SDS011;67888;50.228;7.828;2024-01-15T20:17:23;3.88;;;1.27;;
78589;SDS011;67888;50.228;7.828;2024-01-15T20:22:24;4.82;;;1.60;;
78589;SDS011;67888;50.228;7.828;2024-01-15T20:27:24;5.60;;;1.63;;
78589;SDS011;67888;50.228;7.828;2024-01-15T20:32:25;6.47;;;1.70;;
78589;SDS011;67888;50.228;7.828;2024-01-15T20:37:26;4.40;;;1.33;;
78589;SDS011;67888;50.228;7.828;2024-01-15T20:42:28;5.93;;;1.43;;
78589;SDS011;67888;50.228;7.828;2024-01-15T20:47:29;7.30;;;2.00;;
78589;SDS011;67888;50.228;7.828;2024-01-15T20:52:31;3.67;;;1.47;;
78589;SDS011;67888;50.228;7.828;2024-01-15T20:57:32;6.53;;;1.67;;
78589;SDS011;67888;50.228;7.828;2024-01-15T21:02:33;5.40;;;1.70;;
78589;SDS011;67888;50.228;7.828;2024-01-15T21:07:35;5.72;;;1.35;;
78589;SDS011;67888;50.228;7.828;2024-01-15T21:12:36;5.83;;;1.50;;
78589;SDS011;67888;50.228;7.828;2024-01-15T21:17:36;4.30;;;1.27;;
78589;SDS011;67888;50.228;7.828;2024-01-15T21:22:37;6.30;;;1.57;;
78589;SDS011;67888;50.228;7.828;2024-01-15T21:27:38;6.30;;;1.80;;
78589;SDS011;67888;50.228;7.828;2024-01-15T21:32:40;7.43;;;1.60;;
78589;SDS011;67888;50.228;7.828;2024-01-15T21:37:41;6.38;;;2.10;;
78589;SDS011;67888;50.228;7.828;2024-01-15T21:42:43;3.67;;;1.40;;
78589;SDS011;67888;50.228;7.828;2024-01-15T21:47:43;7.23;;;1.77;;
78589;SDS011;67888;50.228;7.828;2024-01-15T21:52:44;4.67;;;1.33;;
78589;SDS011;67888;50.228;7.828;2024-01-15T21:57:44;5.40;;;1.60;;
78589;SDS011;67888;50.228;7.828;2024-01-15T22:02:45;6.50;;;1.90;;
78589;SDS011;67888;50.228;7.828;2024-01-15T22:07:46;5.17;;;1.87;;
78589;SDS011;67888;50.228;7.828;2024-01-15T22:12:46;4.40;;;1.50;;
78589;SDS011;67888;50.228;7.828;2024-01-15T22:17:47;4.90;;;1.70;;
78589;SDS011;67888;50.228;7.828;2024-01-15T22:22:48;5.63;;;1.77;;
78589;SDS011;67888;50.228;7.828;2024-01-15T22:27:48;7.20;;;1.90;;
78589;SDS011;67888;50.228;7.828;2024-01-15T22:32:49;4.23;;;1.80;;
78589;SDS011;67888;50.228;7.828;2024-01-15T22:37:49;10.73;;;2.50;;
78589;SDS011;67888;50.228;7.828;2024-01-15T22:42:51;6.37;;;2.33;;
78589;SDS011;67888;50.228;7.828;2024-01-15T22:47:51;7.27;;;1.87;;
78589;SDS011;67888;50.228;7.828;2024-01-15T22:52:52;5.93;;;2.13;;
78589;SDS011;67888;50.228;7.828;2024-01-15T22:57:52;7.20;;;2.37;;
78589;SDS011;67888;50.228;7.828;2024-01-15T23:02:53;7.40;;;2.00;;
78589;SDS011;67888;50.228;7.828;2024-01-15T23:07:57;9.50;;;2.47;;
78589;SDS011;67888;50.228;7.828;2024-01-15T23:12:58;7.60;;;2.10;;
78589;SDS011;67888;50.228;7.828;2024-01-15T23:17:58;7.97;;;2.70;;
78589;SDS011;67888;50.228;7.828;2024-01-15T23:22:58;9.17;;;2.70;;
78589;SDS011;67888;50.228;7.828;2024-01-15T23:27:59;8.50;;;2.70;;
78589;SDS011;67888;50.228;7.828;2024-01-15T23:32:59;6.23;;;2.10;;
78589;SDS011;67888;50.228;7.828;2024-01-15T23:38:00;7.43;;;2.17;;
78589;SDS011;67888;50.228;7.828;2024-01-15T23:43:00;9.30;;;3.03;;
78589;SDS011;67888;50.228;7.828;2024-01-15T23:48:01;9.80;;;2.67;;
78589;SDS011;67888;50.228;7.828;2024-01-15T23:53:03;8.53;;;2.37;;
78589;SDS011;67888;50.228;7.828;2024-01-15T23:58:03;9.20;;;2.80;;
